sensor_id;sensor_type;location;lat;lon;timestamp;P1;durP1;ratioP1;P2;durP2;ratioP2
5871;SDS011;2962;51.312;7.378;2023-04-08T00:02:18;63.73;;;25.87;;
5871;SDS011;2962;51.312;7.378;2023-04-08T00:04:43;69.47;;;24.70;;
5871;SDS011;2962;51.312;7.378;2023-04-08T00:07:08;53.00;;;22.67;;
5871;SDS011;2962;51.312;7.378;2023-04-08T00:09:34;56.17;;;22.47;;
5871;SDS011;2962;51.312;7.378;2023-04-08T00:11:59;57.63;;;21.87;;
5871;SDS011;2962;51.312;7.378;2023-04-08T00:14:25;55.00;;;23.03;;
5871;SDS011;2962;51.312;7.378;2023-04-08T00:16:50;58.50;;;23.27;;
5871;SDS011;2962;51.312;7.378;2023-04-08T00:19:15;60.07;;;22.27;;
5871;SDS011;2962;51.312;7.378;2023-04-08T00:21:41;41.70;;;20.00;;
5871;SDS011;2962;51.312;7.378;2023-04-08T00:24:06;48.53;;;20.37;;
5871;SDS011;2962;51.312;7.378;2023-04-08T00:26:31;46.47;;;21.73;;
5871;SDS011;2962;51.312;7.378;2023-04-08T00:28:56;48.77;;;21.93;;
5871;SDS011;2962;51.312;7.378;2023-04-08T00:31:22;45.07;;;21.27;;
5871;SDS011;2962;51.312;7.378;2023-04-08T00:33:47;48.83;;;21.80;;
5871;SDS011;2962;51.312;7.378;2023-04-08T00:36:13;55.40;;;22.67;;
5871;SDS011;2962;51.312;7.378;2023-04-08T00:38:38;49.10;;;21.93;;
5871;SDS011;2962;51.312;7.378;2023-04-08T00:41:03;54.43;;;23.60;;
5871;SDS011;2962;51.312;7.378;2023-04-08T00:43:28;49.40;;;22.40;;
5871;SDS011;2962;51.312;7.378;2023-04-08T00:45:54;50.87;;;23.47;;
5871;SDS011;2962;51.312;7.378;2023-04-08T00:48:19;53.53;;;22.93;;
5871;SDS011;2962;51.312;7.378;2023-04-08T00:50:45;51.20;;;22.93;;
5871;SDS011;2962;51.312;7.378;2023-04-08T00:53:11;56.73;;;25.60;;
5871;SDS011;2962;51.312;7.378;2023-04-08T00:55:41;58.43;;;24.70;;
5871;SDS011;2962;51.312;7.378;2023-04-08T00:58:06;63.60;;;25.73;;
5871;SDS011;2962;51.312;7.378;2023-04-08T01:00:32;49.37;;;23.57;;
5871;SDS011;2962;51.312;7.378;2023-04-08T01:03:03;52.03;;;23.97;;
5871;SDS011;2962;51.312;7.378;2023-04-08T01:05:35;57.70;;;25.47;;
5871;SDS011;2962;51.312;7.378;2023-04-08T01:08:10;66.00;;;25.97;;
5871;SDS011;2962;51.312;7.378;2023-04-08T01:10:36;69.47;;;25.33;;
5871;SDS011;2962;51.312;7.378;2023-04-08T01:13:09;62.83;;;26.33;;
5871;SDS011;2962;51.312;7.378;2023-04-08T01:15:38;68.37;;;25.87;;
5871;SDS011;2962;51.312;7.378;2023-04-08T01:18:08;63.67;;;24.50;;
5871;SDS011;2962;51.312;7.378;2023-04-08T01:20:36;69.00;;;25.30;;
5871;SDS011;2962;51.312;7.378;2023-04-08T01:23:07;87.17;;;26.77;;
5871;SDS011;2962;51.312;7.378;2023-04-08T01:25:44;66.90;;;26.23;;
5871;SDS011;2962;51.312;7.378;2023-04-08T01:28:20;79.43;;;28.07;;
5871;SDS011;2962;51.312;7.378;2023-04-08T01:30:47;77.87;;;28.03;;
5871;SDS011;2962;51.312;7.378;2023-04-08T01:33:15;79.13;;;27.53;;
5871;SDS011;2962;51.312;7.378;2023-04-08T01:35:42;66.97;;;26.83;;
5871;SDS011;2962;51.312;7.378;2023-04-08T01:38:10;84.82;;;29.35;;
5871;SDS011;2962;51.312;7.378;2023-04-08T01:40:39;69.40;;;26.77;;
5871;SDS011;2962;51.312;7.378;2023-04-08T01:43:07;66.03;;;27.43;;
5871;SDS011;2962;51.312;7.378;2023-04-08T01:45:33;62.77;;;26.20;;
5871;SDS011;2962;51.312;7.378;2023-04-08T01:47:59;76.43;;;28.07;;
5871;SDS011;2962;51.312;7.378;2023-04-08T01:50:25;78.97;;;28.93;;
5871;SDS011;2962;51.312;7.378;2023-04-08T01:52:51;90.43;;;27.37;;
5871;SDS011;2962;51.312;7.378;2023-04-08T01:55:17;78.30;;;28.37;;
5871;SDS011;2962;51.312;7.378;2023-04-08T01:57:46;89.75;;;29.80;;
5871;SDS011;2962;51.312;7.378;2023-04-08T02:00:13;78.57;;;27.80;;
5871;SDS011;2962;51.312;7.378;2023-04-08T02:02:42;86.27;;;28.77;;
5871;SDS011;2962;51.312;7.378;2023-04-08T02:05:08;90.83;;;30.07;;
5871;SDS011;2962;51.312;7.378;2023-04-08T02:07:33;92.10;;;31.10;;
5871;SDS011;2962;51.312;7.378;2023-04-08T02:09:59;83.40;;;29.67;;
5871;SDS011;2962;51.312;7.378;2023-04-08T02:12:24;73.80;;;27.10;;
5871;SDS011;2962;51.312;7.378;2023-04-08T02:14:52;70.27;;;27.87;;
5871;SDS011;2962;51.312;7.378;2023-04-08T02:20:04;68.17;;;26.17;;
5871;SDS011;2962;51.312;7.378;2023-04-08T02:25:29;66.32;;;26.05;;
5871;SDS011;2962;51.312;7.378;2023-04-08T02:27:59;63.10;;;25.67;;
5871;SDS011;2962;51.312;7.378;2023-04-08T02:30:28;65.30;;;26.02;;
5871;SDS011;2962;51.312;7.378;2023-04-08T02:32:55;66.77;;;24.50;;
5871;SDS011;2962;51.312;7.378;2023-04-08T02:35:22;83.53;;;27.77;;
5871;SDS011;2962;51.312;7.378;2023-04-08T02:37:48;71.80;;;27.40;;
5871;SDS011;2962;51.312;7.378;2023-04-08T02:40:30;65.20;;;25.03;;
5871;SDS011;2962;51.312;7.378;2023-04-08T02:42:57;63.83;;;25.37;;
5871;SDS011;2962;51.312;7.378;2023-04-08T02:45:27;58.47;;;23.83;;
5871;SDS011;2962;51.312;7.378;2023-04-08T02:47:55;69.90;;;25.35;;
5871;SDS011;2962;51.312;7.378;2023-04-08T02:50:21;56.73;;;25.00;;
5871;SDS011;2962;51.312;7.378;2023-04-08T02:52:46;60.10;;;23.33;;
5871;SDS011;2962;51.312;7.378;2023-04-08T02:55:11;61.80;;;25.00;;
5871;SDS011;2962;51.312;7.378;2023-04-08T02:57:38;60.00;;;24.33;;
5871;SDS011;2962;51.312;7.378;2023-04-08T03:00:05;59.53;;;23.70;;
5871;SDS011;2962;51.312;7.378;2023-04-08T03:02:31;48.33;;;22.53;;
5871;SDS011;2962;51.312;7.378;2023-04-08T03:04:56;56.37;;;23.47;;
5871;SDS011;2962;51.312;7.378;2023-04-08T03:07:21;58.83;;;24.57;;
5871;SDS011;2962;51.312;7.378;2023-04-08T03:09:47;59.97;;;24.43;;
5871;SDS011;2962;51.312;7.378;2023-04-08T03:12:12;62.30;;;24.93;;
5871;SDS011;2962;51.312;7.378;2023-04-08T03:14:37;60.27;;;23.30;;
5871;SDS011;2962;51.312;7.378;2023-04-08T03:17:02;63.70;;;24.90;;
5871;SDS011;2962;51.312;7.378;2023-04-08T03:19:28;59.07;;;23.17;;
5871;SDS011;2962;51.312;7.378;2023-04-08T03:21:53;57.90;;;21.97;;
5871;SDS011;2962;51.312;7.378;2023-04-08T03:24:18;60.93;;;23.00;;
5871;SDS011;2962;51.312;7.378;2023-04-08T03:26:43;50.87;;;22.80;;
5871;SDS011;2962;51.312;7.378;2023-04-08T03:29:09;56.73;;;22.30;;
5871;SDS011;2962;51.312;7.378;2023-04-08T03:31:34;46.77;;;22.67;;
5871;SDS011;2962;51.312;7.378;2023-04-08T03:33:59;57.87;;;22.60;;
5871;SDS011;2962;51.312;7.378;2023-04-08T03:36:25;51.43;;;22.83;;
5871;SDS011;2962;51.312;7.378;2023-04-08T03:38:50;49.43;;;22.37;;
5871;SDS011;2962;51.312;7.378;2023-04-08T03:41:16;47.70;;;21.63;;
5871;SDS011;2962;51.312;7.378;2023-04-08T03:43:41;56.27;;;25.03;;
5871;SDS011;2962;51.312;7.378;2023-04-08T03:46:06;54.47;;;22.80;;
5871;SDS011;2962;51.312;7.378;2023-04-08T03:48:31;58.47;;;22.90;;
5871;SDS011;2962;51.312;7.378;2023-04-08T03:50:57;58.40;;;23.63;;
5871;SDS011;2962;51.312;7.378;2023-04-08T03:53:22;50.17;;;23.07;;
5871;SDS011;2962;51.312;7.378;2023-04-08T03:55:48;59.07;;;23.40;;
5871;SDS011;2962;51.312;7.378;2023-04-08T03:58:15;55.35;;;23.35;;
5871;SDS011;2962;51.312;7.378;2023-04-08T04:00:40;51.17;;;25.07;;
5871;SDS011;2962;51.312;7.378;2023-04-08T04:03:05;56.60;;;23.23;;
5871;SDS011;2962;51.312;7.378;2023-04-08T04:05:31;52.80;;;24.83;;
5871;SDS011;2962;51.312;7.378;2023-04-08T04:07:56;55.47;;;24.60;;
5871;SDS011;2962;51.312;7.378;2023-04-08T04:10:22;57.87;;;22.93;;
5871;SDS011;2962;51.312;7.378;2023-04-08T04:12:48;52.03;;;23.60;;
5871;SDS011;2962;51.312;7.378;2023-04-08T04:15:14;57.77;;;24.30;;
5871;SDS011;2962;51.312;7.378;2023-04-08T04:17:39;53.27;;;23.57;;
5871;SDS011;2962;51.312;7.378;2023-04-08T04:20:05;54.93;;;23.97;;
5871;SDS011;2962;51.312;7.378;2023-04-08T04:22:31;57.63;;;23.00;;
5871;SDS011;2962;51.312;7.378;2023-04-08T04:24:56;54.77;;;24.57;;
5871;SDS011;2962;51.312;7.378;2023-04-08T04:27:21;54.37;;;23.37;;
5871;SDS011;2962;51.312;7.378;2023-04-08T04:29:46;60.80;;;25.93;;
5871;SDS011;2962;51.312;7.378;2023-04-08T04:32:12;61.07;;;25.53;;
5871;SDS011;2962;51.312;7.378;2023-04-08T04:34:37;62.37;;;25.80;;
5871;SDS011;2962;51.312;7.378;2023-04-08T04:37:02;64.13;;;26.13;;
5871;SDS011;2962;51.312;7.378;2023-04-08T04:39:28;69.13;;;27.37;;
5871;SDS011;2962;51.312;7.378;2023-04-08T04:41:53;73.47;;;27.27;;
5871;SDS011;2962;51.312;7.378;2023-04-08T04:44:18;66.73;;;26.03;;
5871;SDS011;2962;51.312;7.378;2023-04-08T04:46:43;77.73;;;27.67;;
5871;SDS011;2962;51.312;7.378;2023-04-08T04:49:09;72.23;;;24.53;;
5871;SDS011;2962;51.312;7.378;2023-04-08T04:51:34;64.60;;;22.53;;
5871;SDS011;2962;51.312;7.378;2023-04-08T04:54:00;61.57;;;23.40;;
5871;SDS011;2962;51.312;7.378;2023-04-08T04:56:25;76.00;;;26.90;;
5871;SDS011;2962;51.312;7.378;2023-04-08T04:58:51;59.67;;;23.90;;
5871;SDS011;2962;51.312;7.378;2023-04-08T05:01:16;62.53;;;24.90;;
5871;SDS011;2962;51.312;7.378;2023-04-08T05:03:41;71.07;;;26.93;;
5871;SDS011;2962;51.312;7.378;2023-04-08T05:06:07;164.13;;;30.97;;
5871;SDS011;2962;51.312;7.378;2023-04-08T05:08:32;269.53;;;33.20;;
5871;SDS011;2962;51.312;7.378;2023-04-08T05:10:57;945.20;;;66.47;;
5871;SDS011;2962;51.312;7.378;2023-04-08T05:13:26;910.65;;;57.00;;
5871;SDS011;2962;51.312;7.378;2023-04-08T05:15:51;1127.97;;;65.57;;
5871;SDS011;2962;51.312;7.378;2023-04-08T05:18:16;896.90;;;53.43;;
5871;SDS011;2962;51.312;7.378;2023-04-08T05:20:42;827.07;;;46.13;;
5871;SDS011;2962;51.312;7.378;2023-04-08T05:23:07;824.10;;;48.33;;
5871;SDS011;2962;51.312;7.378;2023-04-08T05:25:32;810.30;;;45.83;;
5871;SDS011;2962;51.312;7.378;2023-04-08T05:27:58;1149.53;;;61.13;;
5871;SDS011;2962;51.312;7.378;2023-04-08T05:30:23;784.00;;;44.40;;
5871;SDS011;2962;51.312;7.378;2023-04-08T05:32:48;527.03;;;31.80;;
5871;SDS011;2962;51.312;7.378;2023-04-08T05:35:14;646.33;;;36.27;;
5871;SDS011;2962;51.312;7.378;2023-04-08T05:37:39;571.60;;;33.90;;
5871;SDS011;2962;51.312;7.378;2023-04-08T05:40:05;510.97;;;33.87;;
5871;SDS011;2962;51.312;7.378;2023-04-08T05:42:30;669.10;;;38.53;;
5871;SDS011;2962;51.312;7.378;2023-04-08T05:44:56;219.67;;;22.63;;
5871;SDS011;2962;51.312;7.378;2023-04-08T05:47:21;478.33;;;33.00;;
5871;SDS011;2962;51.312;7.378;2023-04-08T05:49:47;686.93;;;42.63;;
5871;SDS011;2962;51.312;7.378;2023-04-08T05:52:12;327.47;;;27.57;;
5871;SDS011;2962;51.312;7.378;2023-04-08T05:54:37;511.53;;;32.13;;
5871;SDS011;2962;51.312;7.378;2023-04-08T05:57:02;259.57;;;24.40;;
5871;SDS011;2962;51.312;7.378;2023-04-08T05:59:28;353.93;;;28.67;;
5871;SDS011;2962;51.312;7.378;2023-04-08T06:01:53;483.70;;;34.10;;
5871;SDS011;2962;51.312;7.378;2023-04-08T06:04:19;423.60;;;32.00;;
5871;SDS011;2962;51.312;7.378;2023-04-08T06:06:45;271.52;;;24.90;;
5871;SDS011;2962;51.312;7.378;2023-04-08T06:09:10;471.53;;;33.50;;
5871;SDS011;2962;51.312;7.378;2023-04-08T06:11:36;364.93;;;26.10;;
5871;SDS011;2962;51.312;7.378;2023-04-08T06:14:01;124.30;;;21.70;;
5871;SDS011;2962;51.312;7.378;2023-04-08T06:16:26;63.20;;;18.63;;
5871;SDS011;2962;51.312;7.378;2023-04-08T06:18:51;83.97;;;17.70;;
5871;SDS011;2962;51.312;7.378;2023-04-08T06:21:17;33.57;;;15.57;;
5871;SDS011;2962;51.312;7.378;2023-04-08T06:23:42;33.47;;;16.80;;
5871;SDS011;2962;51.312;7.378;2023-04-08T06:26:08;28.27;;;17.30;;
5871;SDS011;2962;51.312;7.378;2023-04-08T06:28:33;36.80;;;18.93;;
5871;SDS011;2962;51.312;7.378;2023-04-08T06:30:58;49.60;;;23.00;;
5871;SDS011;2962;51.312;7.378;2023-04-08T06:33:23;45.10;;;21.70;;
5871;SDS011;2962;51.312;7.378;2023-04-08T06:35:49;56.70;;;27.77;;
5871;SDS011;2962;51.312;7.378;2023-04-08T06:38:14;60.33;;;26.40;;
5871;SDS011;2962;51.312;7.378;2023-04-08T06:40:40;51.27;;;24.40;;
5871;SDS011;2962;51.312;7.378;2023-04-08T06:43:05;51.37;;;24.60;;
5871;SDS011;2962;51.312;7.378;2023-04-08T06:45:33;63.97;;;27.17;;
5871;SDS011;2962;51.312;7.378;2023-04-08T06:47:59;59.43;;;26.70;;
5871;SDS011;2962;51.312;7.378;2023-04-08T06:50:25;62.23;;;27.00;;
5871;SDS011;2962;51.312;7.378;2023-04-08T06:52:50;67.83;;;26.70;;
5871;SDS011;2962;51.312;7.378;2023-04-08T06:55:15;70.90;;;26.40;;
5871;SDS011;2962;51.312;7.378;2023-04-08T06:57:41;101.63;;;30.20;;
5871;SDS011;2962;51.312;7.378;2023-04-08T07:00:06;96.03;;;30.57;;
5871;SDS011;2962;51.312;7.378;2023-04-08T07:02:32;97.10;;;29.97;;
5871;SDS011;2962;51.312;7.378;2023-04-08T07:04:58;271.80;;;32.17;;
5871;SDS011;2962;51.312;7.378;2023-04-08T07:07:23;336.00;;;34.30;;
5871;SDS011;2962;51.312;7.378;2023-04-08T07:09:49;529.17;;;40.90;;
5871;SDS011;2962;51.312;7.378;2023-04-08T07:12:14;732.70;;;50.53;;
5871;SDS011;2962;51.312;7.378;2023-04-08T07:14:40;814.23;;;56.90;;
5871;SDS011;2962;51.312;7.378;2023-04-08T07:17:05;799.80;;;46.93;;
5871;SDS011;2962;51.312;7.378;2023-04-08T07:19:31;806.83;;;48.23;;
5871;SDS011;2962;51.312;7.378;2023-04-08T07:21:56;636.37;;;38.60;;
5871;SDS011;2962;51.312;7.378;2023-04-08T07:24:22;858.63;;;48.77;;
5871;SDS011;2962;51.312;7.378;2023-04-08T07:26:47;904.70;;;49.63;;
5871;SDS011;2962;51.312;7.378;2023-04-08T07:29:16;691.77;;;38.60;;
5871;SDS011;2962;51.312;7.378;2023-04-08T07:31:42;805.90;;;46.03;;
5871;SDS011;2962;51.312;7.378;2023-04-08T07:34:07;769.93;;;44.90;;
5871;SDS011;2962;51.312;7.378;2023-04-08T07:36:33;703.87;;;41.13;;
5871;SDS011;2962;51.312;7.378;2023-04-08T07:38:58;776.30;;;39.83;;
5871;SDS011;2962;51.312;7.378;2023-04-08T07:41:23;703.80;;;39.93;;
5871;SDS011;2962;51.312;7.378;2023-04-08T07:43:49;688.53;;;40.27;;
5871;SDS011;2962;51.312;7.378;2023-04-08T07:46:14;697.37;;;40.07;;
5871;SDS011;2962;51.312;7.378;2023-04-08T07:48:40;795.97;;;43.67;;
5871;SDS011;2962;51.312;7.378;2023-04-08T07:51:05;617.10;;;39.77;;
5871;SDS011;2962;51.312;7.378;2023-04-08T07:53:32;498.73;;;37.43;;
5871;SDS011;2962;51.312;7.378;2023-04-08T07:55:58;757.60;;;49.03;;
5871;SDS011;2962;51.312;7.378;2023-04-08T07:58:24;525.10;;;36.83;;
5871;SDS011;2962;51.312;7.378;2023-04-08T08:00:49;339.10;;;28.17;;
5871;SDS011;2962;51.312;7.378;2023-04-08T08:03:14;393.57;;;34.50;;
5871;SDS011;2962;51.312;7.378;2023-04-08T08:05:40;81.87;;;25.50;;
5871;SDS011;2962;51.312;7.378;2023-04-08T08:08:05;130.60;;;25.60;;
5871;SDS011;2962;51.312;7.378;2023-04-08T08:10:31;77.33;;;25.80;;
5871;SDS011;2962;51.312;7.378;2023-04-08T08:12:57;46.40;;;27.20;;
5871;SDS011;2962;51.312;7.378;2023-04-08T08:15:23;49.37;;;28.33;;
5871;SDS011;2962;51.312;7.378;2023-04-08T08:17:48;58.87;;;26.17;;
5871;SDS011;2962;51.312;7.378;2023-04-08T08:20:13;87.67;;;31.57;;
5871;SDS011;2962;51.312;7.378;2023-04-08T08:22:39;58.00;;;27.20;;
5871;SDS011;2962;51.312;7.378;2023-04-08T08:25:05;48.83;;;29.03;;
5871;SDS011;2962;51.312;7.378;2023-04-08T08:27:31;49.47;;;28.57;;
5871;SDS011;2962;51.312;7.378;2023-04-08T08:29:58;57.07;;;25.13;;
5871;SDS011;2962;51.312;7.378;2023-04-08T08:32:23;49.93;;;26.40;;
5871;SDS011;2962;51.312;7.378;2023-04-08T08:34:49;60.83;;;29.87;;
5871;SDS011;2962;51.312;7.378;2023-04-08T08:37:14;60.93;;;30.70;;
5871;SDS011;2962;51.312;7.378;2023-04-08T08:39:39;159.33;;;31.90;;
5871;SDS011;2962;51.312;7.378;2023-04-08T08:42:06;81.67;;;32.70;;
5871;SDS011;2962;51.312;7.378;2023-04-08T08:44:46;79.73;;;33.13;;
5871;SDS011;2962;51.312;7.378;2023-04-08T08:47:12;68.70;;;35.20;;
5871;SDS011;2962;51.312;7.378;2023-04-08T08:49:38;66.63;;;34.07;;
5871;SDS011;2962;51.312;7.378;2023-04-08T08:52:04;65.70;;;35.23;;
5871;SDS011;2962;51.312;7.378;2023-04-08T08:54:30;62.53;;;34.17;;
5871;SDS011;2962;51.312;7.378;2023-04-08T08:56:56;60.07;;;33.60;;
5871;SDS011;2962;51.312;7.378;2023-04-08T08:59:21;59.60;;;31.77;;
5871;SDS011;2962;51.312;7.378;2023-04-08T09:01:47;56.77;;;32.23;;
5871;SDS011;2962;51.312;7.378;2023-04-08T09:04:13;53.90;;;31.30;;
5871;SDS011;2962;51.312;7.378;2023-04-08T09:06:47;51.87;;;28.83;;
5871;SDS011;2962;51.312;7.378;2023-04-08T09:09:14;50.33;;;27.87;;
5871;SDS011;2962;51.312;7.378;2023-04-08T09:11:42;53.07;;;28.60;;
5871;SDS011;2962;51.312;7.378;2023-04-08T09:14:17;48.60;;;26.90;;
5871;SDS011;2962;51.312;7.378;2023-04-08T09:16:49;55.80;;;28.03;;
5871;SDS011;2962;51.312;7.378;2023-04-08T09:19:15;49.60;;;27.23;;
5871;SDS011;2962;51.312;7.378;2023-04-08T09:21:41;53.10;;;26.27;;
5871;SDS011;2962;51.312;7.378;2023-04-08T09:24:07;42.83;;;25.30;;
5871;SDS011;2962;51.312;7.378;2023-04-08T09:26:33;38.87;;;22.20;;
5871;SDS011;2962;51.312;7.378;2023-04-08T09:29:03;28.90;;;20.20;;
5871;SDS011;2962;51.312;7.378;2023-04-08T09:31:30;30.93;;;18.87;;
5871;SDS011;2962;51.312;7.378;2023-04-08T09:34:15;24.10;;;16.33;;
5871;SDS011;2962;51.312;7.378;2023-04-08T09:36:41;27.00;;;17.57;;
5871;SDS011;2962;51.312;7.378;2023-04-08T09:39:08;25.87;;;18.17;;
5871;SDS011;2962;51.312;7.378;2023-04-08T09:41:34;27.10;;;17.47;;
5871;SDS011;2962;51.312;7.378;2023-04-08T09:44:04;24.90;;;16.67;;
5871;SDS011;2962;51.312;7.378;2023-04-08T09:49:04;25.53;;;17.77;;
5871;SDS011;2962;51.312;7.378;2023-04-08T09:51:44;22.80;;;15.60;;
5871;SDS011;2962;51.312;7.378;2023-04-08T09:54:15;21.07;;;15.93;;
5871;SDS011;2962;51.312;7.378;2023-04-08T09:56:50;25.33;;;16.13;;
5871;SDS011;2962;51.312;7.378;2023-04-08T09:59:24;22.90;;;15.90;;
5871;SDS011;2962;51.312;7.378;2023-04-08T10:01:55;22.50;;;16.73;;
5871;SDS011;2962;51.312;7.378;2023-04-08T10:04:25;20.70;;;15.37;;
5871;SDS011;2962;51.312;7.378;2023-04-08T10:06:53;21.07;;;15.40;;
5871;SDS011;2962;51.312;7.378;2023-04-08T10:09:24;26.50;;;17.03;;
5871;SDS011;2962;51.312;7.378;2023-04-08T10:11:52;20.30;;;14.17;;
5871;SDS011;2962;51.312;7.378;2023-04-08T10:14:20;19.43;;;14.37;;
5871;SDS011;2962;51.312;7.378;2023-04-08T10:16:46;18.90;;;14.13;;
5871;SDS011;2962;51.312;7.378;2023-04-08T10:27:43;13.60;;;10.97;;
5871;SDS011;2962;51.312;7.378;2023-04-08T10:33:18;11.30;;;10.13;;
5871;SDS011;2962;51.312;7.378;2023-04-08T10:35:53;11.43;;;10.03;;
5871;SDS011;2962;51.312;7.378;2023-04-08T10:38:35;12.90;;;10.60;;
5871;SDS011;2962;51.312;7.378;2023-04-08T10:41:01;10.77;;;9.73;;
5871;SDS011;2962;51.312;7.378;2023-04-08T10:43:27;12.77;;;10.23;;
5871;SDS011;2962;51.312;7.378;2023-04-08T10:45:56;10.50;;;9.50;;
5871;SDS011;2962;51.312;7.378;2023-04-08T10:48:22;10.40;;;9.40;;
5871;SDS011;2962;51.312;7.378;2023-04-08T10:50:58;11.90;;;10.43;;
5871;SDS011;2962;51.312;7.378;2023-04-08T10:53:31;13.87;;;9.70;;
5871;SDS011;2962;51.312;7.378;2023-04-08T10:56:13;10.50;;;9.40;;
5871;SDS011;2962;51.312;7.378;2023-04-08T10:58:49;11.87;;;10.17;;
5871;SDS011;2962;51.312;7.378;2023-04-08T11:01:22;9.07;;;8.27;;
5871;SDS011;2962;51.312;7.378;2023-04-08T11:03:48;7.83;;;7.03;;
5871;SDS011;2962;51.312;7.378;2023-04-08T11:06:14;9.43;;;8.43;;
5871;SDS011;2962;51.312;7.378;2023-04-08T11:08:40;11.67;;;8.37;;
5871;SDS011;2962;51.312;7.378;2023-04-08T11:11:05;9.27;;;8.10;;
5871;SDS011;2962;51.312;7.378;2023-04-08T11:13:35;10.20;;;7.93;;
5871;SDS011;2962;51.312;7.378;2023-04-08T11:16:03;8.27;;;7.60;;
5871;SDS011;2962;51.312;7.378;2023-04-08T11:18:30;8.53;;;7.83;;
5871;SDS011;2962;51.312;7.378;2023-04-08T11:20:56;9.40;;;8.57;;
5871;SDS011;2962;51.312;7.378;2023-04-08T11:23:23;10.07;;;9.03;;
5871;SDS011;2962;51.312;7.378;2023-04-08T11:25:49;10.33;;;8.87;;
5871;SDS011;2962;51.312;7.378;2023-04-08T11:28:16;21.50;;;10.83;;
5871;SDS011;2962;51.312;7.378;2023-04-08T11:30:42;8.90;;;8.20;;
5871;SDS011;2962;51.312;7.378;2023-04-08T11:33:08;8.77;;;8.07;;
5871;SDS011;2962;51.312;7.378;2023-04-08T11:35:33;10.00;;;9.20;;
5871;SDS011;2962;51.312;7.378;2023-04-08T11:37:58;9.13;;;8.23;;
5871;SDS011;2962;51.312;7.378;2023-04-08T11:40:24;10.33;;;9.43;;
5871;SDS011;2962;51.312;7.378;2023-04-08T11:42:50;9.70;;;8.77;;
5871;SDS011;2962;51.312;7.378;2023-04-08T11:45:17;9.60;;;8.40;;
5871;SDS011;2962;51.312;7.378;2023-04-08T11:47:44;8.47;;;7.80;;
5871;SDS011;2962;51.312;7.378;2023-04-08T11:50:09;10.20;;;9.20;;
5871;SDS011;2962;51.312;7.378;2023-04-08T11:52:42;10.53;;;9.63;;
5871;SDS011;2962;51.312;7.378;2023-04-08T11:55:09;8.87;;;8.27;;
5871;SDS011;2962;51.312;7.378;2023-04-08T11:57:35;9.93;;;9.13;;
5871;SDS011;2962;51.312;7.378;2023-04-08T12:00:01;9.87;;;9.07;;
5871;SDS011;2962;51.312;7.378;2023-04-08T12:02:29;10.63;;;9.73;;
5871;SDS011;2962;51.312;7.378;2023-04-08T12:04:55;9.87;;;8.87;;
5871;SDS011;2962;51.312;7.378;2023-04-08T12:07:20;11.33;;;10.33;;
5871;SDS011;2962;51.312;7.378;2023-04-08T12:09:46;11.33;;;10.33;;
5871;SDS011;2962;51.312;7.378;2023-04-08T12:12:11;11.33;;;10.33;;
5871;SDS011;2962;51.312;7.378;2023-04-08T12:14:36;12.23;;;11.00;;
5871;SDS011;2962;51.312;7.378;2023-04-08T12:17:01;10.70;;;9.70;;
5871;SDS011;2962;51.312;7.378;2023-04-08T12:19:28;11.03;;;10.00;;
5871;SDS011;2962;51.312;7.378;2023-04-08T12:21:53;11.73;;;9.57;;
5871;SDS011;2962;51.312;7.378;2023-04-08T12:24:19;11.73;;;10.43;;
5871;SDS011;2962;51.312;7.378;2023-04-08T12:26:45;16.00;;;12.63;;
5871;SDS011;2962;51.312;7.378;2023-04-08T12:29:10;10.80;;;9.80;;
5871;SDS011;2962;51.312;7.378;2023-04-08T12:31:35;9.57;;;8.73;;
5871;SDS011;2962;51.312;7.378;2023-04-08T12:34:01;11.70;;;9.40;;
5871;SDS011;2962;51.312;7.378;2023-04-08T12:36:26;11.13;;;10.03;;
5871;SDS011;2962;51.312;7.378;2023-04-08T12:38:51;10.20;;;9.30;;
5871;SDS011;2962;51.312;7.378;2023-04-08T12:41:17;10.70;;;9.60;;
5871;SDS011;2962;51.312;7.378;2023-04-08T12:43:42;10.47;;;9.67;;
5871;SDS011;2962;51.312;7.378;2023-04-08T12:46:07;11.10;;;10.00;;
5871;SDS011;2962;51.312;7.378;2023-04-08T12:48:33;11.93;;;10.73;;
5871;SDS011;2962;51.312;7.378;2023-04-08T12:50:58;13.27;;;10.37;;
5871;SDS011;2962;51.312;7.378;2023-04-08T12:53:23;12.00;;;10.83;;
5871;SDS011;2962;51.312;7.378;2023-04-08T12:55:48;11.60;;;10.33;;
5871;SDS011;2962;51.312;7.378;2023-04-08T12:58:15;11.80;;;10.70;;
5871;SDS011;2962;51.312;7.378;2023-04-08T13:00:40;13.93;;;10.97;;
5871;SDS011;2962;51.312;7.378;2023-04-08T13:03:10;13.23;;;12.00;;
5871;SDS011;2962;51.312;7.378;2023-04-08T13:05:35;15.23;;;13.73;;
5871;SDS011;2962;51.312;7.378;2023-04-08T13:08:01;16.23;;;14.00;;
5871;SDS011;2962;51.312;7.378;2023-04-08T13:10:26;13.70;;;12.40;;
5871;SDS011;2962;51.312;7.378;2023-04-08T13:12:51;16.23;;;14.33;;
5871;SDS011;2962;51.312;7.378;2023-04-08T13:15:17;15.40;;;13.80;;
5871;SDS011;2962;51.312;7.378;2023-04-08T13:17:42;17.40;;;14.33;;
5871;SDS011;2962;51.312;7.378;2023-04-08T13:20:07;16.43;;;14.77;;
5871;SDS011;2962;51.312;7.378;2023-04-08T13:22:34;13.30;;;12.00;;
5871;SDS011;2962;51.312;7.378;2023-04-08T13:24:59;14.47;;;13.07;;
5871;SDS011;2962;51.312;7.378;2023-04-08T13:27:25;14.70;;;13.20;;
5871;SDS011;2962;51.312;7.378;2023-04-08T13:29:51;14.30;;;12.80;;
5871;SDS011;2962;51.312;7.378;2023-04-08T13:32:16;15.57;;;13.87;;
5871;SDS011;2962;51.312;7.378;2023-04-08T13:34:41;17.30;;;14.30;;
5871;SDS011;2962;51.312;7.378;2023-04-08T13:37:07;17.87;;;15.63;;
5871;SDS011;2962;51.312;7.378;2023-04-08T13:39:33;16.17;;;14.47;;
5871;SDS011;2962;51.312;7.378;2023-04-08T13:41:58;18.70;;;14.90;;
5871;SDS011;2962;51.312;7.378;2023-04-08T13:44:23;17.40;;;15.43;;
5871;SDS011;2962;51.312;7.378;2023-04-08T13:46:49;16.80;;;15.10;;
5871;SDS011;2962;51.312;7.378;2023-04-08T13:49:14;19.77;;;17.70;;
5871;SDS011;2962;51.312;7.378;2023-04-08T13:51:40;26.00;;;17.83;;
5871;SDS011;2962;51.312;7.378;2023-04-08T13:54:05;18.17;;;16.03;;
5871;SDS011;2962;51.312;7.378;2023-04-08T13:56:31;18.07;;;16.07;;
5871;SDS011;2962;51.312;7.378;2023-04-08T13:58:56;19.97;;;17.73;;
5871;SDS011;2962;51.312;7.378;2023-04-08T14:01:21;20.60;;;17.03;;
5871;SDS011;2962;51.312;7.378;2023-04-08T14:03:49;20.10;;;17.20;;
5871;SDS011;2962;51.312;7.378;2023-04-08T14:06:14;22.97;;;17.43;;
5871;SDS011;2962;51.312;7.378;2023-04-08T14:08:40;17.67;;;15.87;;
5871;SDS011;2962;51.312;7.378;2023-04-08T14:11:05;17.93;;;16.13;;
5871;SDS011;2962;51.312;7.378;2023-04-08T14:13:30;19.30;;;17.20;;
5871;SDS011;2962;51.312;7.378;2023-04-08T14:15:56;17.83;;;15.93;;
5871;SDS011;2962;51.312;7.378;2023-04-08T14:18:22;20.70;;;15.93;;
5871;SDS011;2962;51.312;7.378;2023-04-08T14:20:48;20.37;;;15.63;;
5871;SDS011;2962;51.312;7.378;2023-04-08T14:23:13;17.93;;;15.23;;
5871;SDS011;2962;51.312;7.378;2023-04-08T14:25:38;18.23;;;15.97;;
5871;SDS011;2962;51.312;7.378;2023-04-08T14:28:04;19.00;;;16.00;;
5871;SDS011;2962;51.312;7.378;2023-04-08T14:30:30;19.60;;;16.93;;
5871;SDS011;2962;51.312;7.378;2023-04-08T14:32:56;17.53;;;15.67;;
5871;SDS011;2962;51.312;7.378;2023-04-08T14:35:23;19.90;;;16.77;;
5871;SDS011;2962;51.312;7.378;2023-04-08T14:37:48;21.80;;;15.87;;
5871;SDS011;2962;51.312;7.378;2023-04-08T14:40:13;18.00;;;16.10;;
5871;SDS011;2962;51.312;7.378;2023-04-08T14:42:38;19.77;;;15.50;;
5871;SDS011;2962;51.312;7.378;2023-04-08T14:45:04;17.43;;;15.60;;
5871;SDS011;2962;51.312;7.378;2023-04-08T14:47:30;18.20;;;15.77;;
5871;SDS011;2962;51.312;7.378;2023-04-08T14:49:55;17.10;;;15.33;;
5871;SDS011;2962;51.312;7.378;2023-04-08T14:52:20;17.43;;;14.80;;
5871;SDS011;2962;51.312;7.378;2023-04-08T14:54:47;22.20;;;16.10;;
5871;SDS011;2962;51.312;7.378;2023-04-08T14:57:12;17.00;;;15.23;;
5871;SDS011;2962;51.312;7.378;2023-04-08T14:59:37;16.53;;;14.30;;
5871;SDS011;2962;51.312;7.378;2023-04-08T15:02:03;20.23;;;15.00;;
5871;SDS011;2962;51.312;7.378;2023-04-08T15:04:28;17.73;;;14.33;;